Time;durP1;ratioP1;P1;durP2;ratioP2;P2;SDS_P1;SDS_P2;PMS_P1;PMS_P2;Temp;Humidity;BMP_temperature;BMP_pressure;BME280_temperature;BME280_humidity;BME280_pressure;Samples;Min_cycle;Max_cycle;Signal;HPM_P1;HPM_P2
2021/04/05 00:00:24;;;;;;;19.90;12.77;;;6.60;67.60;;;;;;5037362;28;20462;-43
2021/04/05 00:02:51;;;;;;;20.10;12.40;;;6.50;67.60;;;;;;5038482;28;21022;-43
2021/04/05 00:05:26;;;;;;;20.27;12.87;;;6.50;67.70;;;;;;5035743;28;20466;-42
2021/04/05 00:07:53;;;;;;;29.40;12.80;;;6.50;67.80;;;;;;5036028;28;20808;-42
2021/04/05 00:10:34;;;;;;;19.03;12.53;;;6.50;67.90;;;;;;5038987;28;20859;-43
2021/04/05 00:13:05;;;;;;;24.53;13.10;;;6.40;67.90;;;;;;5036032;28;20489;-42
2021/04/05 00:15:32;;;;;;;23.23;12.27;;;6.40;67.90;;;;;;5042233;28;20458;-42
2021/04/05 00:17:58;;;;;;;24.93;13.70;;;6.40;67.80;;;;;;5024605;28;21046;-43
2021/04/05 00:20:30;;;;;;;19.43;12.57;;;6.40;67.80;;;;;;5035255;28;20481;-43
2021/04/05 00:22:56;;;;;;;21.73;11.80;;;6.40;67.70;;;;;;5039393;28;20494;-42
2021/04/05 00:25:22;;;;;;;25.57;12.40;;;6.30;67.70;;;;;;5038360;28;20455;-43
2021/04/05 00:27:51;;;;;;;19.87;12.80;;;6.30;67.80;;;;;;5038470;28;20454;-42
2021/04/05 00:30:21;;;;;;;21.10;12.03;;;6.30;68.10;;;;;;5036981;28;20466;-42
2021/04/05 00:32:49;;;;;;;27.57;13.03;;;6.30;68.20;;;;;;5055735;28;20466;-43
2021/04/05 00:35:18;;;;;;;23.70;12.57;;;6.30;68.10;;;;;;5036592;28;20450;-43
2021/04/05 00:37:46;;;;;;;27.67;13.47;;;6.30;68.00;;;;;;5036617;28;20455;-43
2021/04/05 00:40:14;;;;;;;23.10;13.90;;;6.30;68.00;;;;;;5039259;28;20492;-42
2021/04/05 00:42:44;;;;;;;24.40;13.33;;;6.30;68.10;;;;;;5043616;28;20461;-42
2021/04/05 00:45:13;;;;;;;22.37;12.63;;;6.30;68.10;;;;;;5041212;28;20512;-43
2021/04/05 00:47:47;;;;;;;20.20;12.43;;;6.30;68.30;;;;;;5045684;28;20454;-43
2021/04/05 00:50:23;;;;;;;26.60;13.00;;;6.30;68.50;;;;;;5039587;28;20459;-43
2021/04/05 00:52:53;;;;;;;25.60;12.10;;;6.20;68.50;;;;;;5059680;28;20460;-42
2021/04/05 00:55:20;;;;;;;20.40;12.57;;;6.20;68.50;;;;;;5047304;28;20443;-43
2021/04/05 00:57:47;;;;;;;24.23;12.97;;;6.20;68.70;;;;;;5042431;28;20459;-42
2021/04/05 01:00:16;;;;;;;22.80;12.87;;;6.20;68.90;;;;;;5043822;28;20454;-43
2021/04/05 01:02:43;;;;;;;26.87;11.80;;;6.10;69.00;;;;;;5046076;28;20454;-43
2021/04/05 01:05:10;;;;;;;26.37;14.17;;;6.10;69.20;;;;;;5045690;28;20541;-42
2021/04/05 01:07:37;;;;;;;23.00;12.57;;;6.10;69.30;;;;;;5045169;28;20459;-42
2021/04/05 01:10:07;;;;;;;21.90;12.10;;;6.10;69.40;;;;;;5039984;28;20995;-43
2021/04/05 01:12:38;;;;;;;23.63;13.33;;;6.10;69.50;;;;;;5042644;28;20471;-43
2021/04/05 01:15:09;;;;;;;24.93;13.40;;;6.10;69.80;;;;;;5041461;28;20464;-42
2021/04/05 01:17:36;;;;;;;22.47;12.07;;;6.10;69.90;;;;;;5043068;28;20493;-43
2021/04/05 01:20:08;;;;;;;30.27;13.53;;;6.10;69.90;;;;;;5046138;28;20458;-43
2021/04/05 01:22:35;;;;;;;24.33;14.00;;;6.10;69.90;;;;;;5045249;28;20467;-43
2021/04/05 01:25:08;;;;;;;22.17;13.07;;;6.10;70.00;;;;;;5041787;28;20485;-43
2021/04/05 01:27:34;;;;;;;29.57;12.70;;;6.10;70.00;;;;;;5042549;28;20462;-43
2021/04/05 01:30:03;;;;;;;24.73;14.20;;;6.10;70.00;;;;;;5039985;28;20455;-43
2021/04/05 01:32:29;;;;;;;24.93;11.90;;;6.10;70.10;;;;;;5040016;28;20516;-43
2021/04/05 01:34:56;;;;;;;23.73;15.30;;;6.10;70.10;;;;;;5042953;28;20454;-43
2021/04/05 01:37:24;;;;;;;27.00;13.33;;;6.10;70.00;;;;;;5042556;28;20463;-42
2021/04/05 01:39:50;;;;;;;23.50;13.00;;;6.00;70.00;;;;;;5056703;28;20454;-43
2021/04/05 01:42:17;;;;;;;26.00;13.67;;;6.00;70.00;;;;;;5042424;28;20447;-42
2021/04/05 01:44:43;;;;;;;20.70;13.50;;;6.00;69.80;;;;;;5043877;28;20491;-42
2021/04/05 01:47:10;;;;;;;23.67;13.33;;;6.00;69.70;;;;;;5040937;28;20842;-43
2021/04/05 01:49:40;;;;;;;26.63;13.20;;;5.90;69.60;;;;;;5041257;28;20963;-43
2021/04/05 01:52:14;;;;;;;27.83;14.10;;;5.90;69.50;;;;;;5041800;28;20454;-43
2021/04/05 01:54:40;;;;;;;25.60;13.13;;;6.00;69.40;;;;;;5023459;28;20509;-42
2021/04/05 01:57:09;;;;;;;18.30;11.83;;;5.90;69.50;;;;;;5041191;28;20461;-42
2021/04/05 01:59:37;;;;;;;26.53;12.23;;;5.90;69.60;;;;;;5039218;28;20463;-43
2021/04/05 02:02:04;;;;;;;23.67;13.40;;;5.90;69.70;;;;;;5038989;28;20974;-43
2021/04/05 02:04:32;;;;;;;27.70;13.20;;;5.80;69.90;;;;;;5045435;28;20491;-43
2021/04/05 02:06:58;;;;;;;21.50;12.50;;;5.80;69.90;;;;;;5044335;28;20835;-42
2021/04/05 02:09:25;;;;;;;20.43;12.33;;;5.80;70.00;;;;;;5040355;28;20450;-42
2021/04/05 02:11:51;;;;;;;23.87;12.67;;;5.80;70.20;;;;;;5041475;28;20451;-42
2021/04/05 02:14:17;;;;;;;25.20;14.30;;;5.80;70.30;;;;;;5042837;28;20475;-43
2021/04/05 02:16:45;;;;;;;26.10;14.13;;;5.80;70.40;;;;;;5045870;28;20512;-42
2021/04/05 02:19:15;;;;;;;30.33;15.27;;;5.80;70.40;;;;;;5044948;28;21036;-43
2021/04/05 02:21:46;;;;;;;21.67;12.80;;;5.80;70.70;;;;;;5039256;28;20952;-43
2021/04/05 02:24:13;;;;;;;23.93;13.30;;;5.80;70.80;;;;;;5038947;28;20491;-43
2021/04/05 02:26:44;;;;;;;23.67;13.83;;;5.70;70.90;;;;;;5042486;28;20459;-42
2021/04/05 02:29:11;;;;;;;23.50;13.23;;;5.80;71.00;;;;;;5040494;28;20452;-42
2021/04/05 02:31:37;;;;;;;30.33;14.83;;;5.80;71.00;;;;;;5042808;28;20464;-43
2021/04/05 02:34:11;;;;;;;25.07;13.40;;;5.80;71.00;;;;;;5039186;28;20462;-43
2021/04/05 02:36:39;;;;;;;25.60;14.17;;;5.80;70.90;;;;;;5039392;28;20474;-43
2021/04/05 02:39:08;;;;;;;28.13;13.57;;;5.80;71.00;;;;;;5043382;28;20533;-43
2021/04/05 02:41:37;;;;;;;19.87;12.37;;;5.80;71.10;;;;;;5036477;28;20948;-43
2021/04/05 02:44:04;;;;;;;23.90;12.93;;;5.70;71.20;;;;;;5035842;28;20492;-42
2021/04/05 02:46:34;;;;;;;28.87;13.03;;;5.70;71.30;;;;;;5054431;28;20451;-42
2021/04/05 02:49:03;;;;;;;29.67;15.07;;;5.70;71.30;;;;;;5039756;28;20463;-43
2021/04/05 02:51:30;;;;;;;27.03;14.50;;;5.80;71.60;;;;;;5037522;28;20447;-43
2021/04/05 02:54:00;;;;;;;27.07;14.03;;;5.80;71.50;;;;;;5045185;28;20465;-43
2021/04/05 02:56:27;;;;;;;27.77;14.83;;;5.80;71.60;;;;;;5040958;28;20466;-42
2021/04/05 02:58:55;;;;;;;25.90;13.17;;;5.80;71.80;;;;;;5038956;28;20459;-43
2021/04/05 03:01:24;;;;;;;30.87;14.23;;;5.80;71.80;;;;;;5037979;28;20452;-42
2021/04/05 03:03:54;;;;;;;25.70;13.70;;;5.80;71.90;;;;;;5037262;28;20824;-43
2021/04/05 03:06:22;;;;;;;33.27;13.87;;;5.80;71.80;;;;;;5043680;28;20970;-43
2021/04/05 03:08:48;;;;;;;22.97;12.90;;;5.80;71.80;;;;;;5036806;28;20450;-43
2021/04/05 03:11:18;;;;;;;22.37;13.77;;;5.90;71.80;;;;;;5041148;28;20455;-44
2021/04/05 03:13:45;;;;;;;25.07;14.10;;;5.90;71.80;;;;;;5045401;28;20468;-43
2021/04/05 03:16:16;;;;;;;24.13;14.23;;;5.90;72.00;;;;;;5048088;28;20451;-43
2021/04/05 03:18:45;;;;;;;23.30;13.80;;;5.90;71.90;;;;;;5040403;28;20459;-43
2021/04/05 03:21:15;;;;;;;24.23;13.37;;;6.00;72.00;;;;;;5037744;28;20455;-43
2021/04/05 03:23:42;;;;;;;27.80;14.07;;;6.00;71.70;;;;;;5053075;28;20892;-43
2021/04/05 03:26:09;;;;;;;26.80;14.93;;;6.00;71.80;;;;;;5037363;28;20461;-42
2021/04/05 03:28:35;;;;;;;27.30;14.73;;;6.00;71.60;;;;;;5038067;28;20446;-43
2021/04/05 03:31:08;;;;;;;23.97;12.70;;;6.00;71.50;;;;;;5043525;28;20459;-42
2021/04/05 03:33:52;;;;;;;21.07;12.80;;;6.00;71.50;;;;;;5036262;28;20456;-42
2021/04/05 03:36:29;;;;;;;29.50;14.27;;;6.00;71.50;;;;;;5042000;28;20474;-43
2021/04/05 03:38:59;;;;;;;21.43;12.57;;;6.00;71.60;;;;;;5036862;28;20467;-44
2021/04/05 03:41:41;;;;;;;22.60;13.43;;;6.00;71.60;;;;;;5038996;28;20515;-42
2021/04/05 03:44:35;;;;;;;27.63;13.43;;;6.00;71.70;;;;;;5034664;28;20488;-44
2021/04/05 03:47:09;;;;;;;32.70;15.20;;;6.00;71.80;;;;;;5037657;28;20484;-43
2021/04/05 03:49:40;;;;;;;23.33;12.97;;;6.10;71.80;;;;;;5034840;28;20529;-42
2021/04/05 03:52:26;;;;;;;25.40;12.53;;;6.00;71.80;;;;;;5039059;28;20458;-42
2021/04/05 03:54:57;;;;;;;28.40;14.27;;;6.00;71.80;;;;;;5043838;28;20485;-43
2021/04/05 03:57:28;;;;;;;31.67;14.37;;;6.00;71.80;;;;;;5037242;28;20536;-42
2021/04/05 03:59:57;;;;;;;23.23;12.43;;;6.00;72.00;;;;;;5037841;28;20549;-42
2021/04/05 04:02:30;;;;;;;25.20;13.13;;;6.00;72.10;;;;;;5037160;28;20470;-42
2021/04/05 04:05:07;;;;;;;38.33;14.87;;;6.00;72.00;;;;;;5052345;28;20501;-41
2021/04/05 04:07:50;;;;;;;22.80;14.37;;;6.00;72.10;;;;;;5042000;28;20466;-42
2021/04/05 04:10:19;;;;;;;21.33;12.93;;;6.00;72.00;;;;;;5039187;28;20454;-42
2021/04/05 04:12:47;;;;;;;27.50;12.30;;;6.00;72.00;;;;;;5041961;28;20481;-42
2021/04/05 04:15:15;;;;;;;26.93;12.73;;;6.10;72.20;;;;;;5039207;28;20554;-43
2021/04/05 04:17:44;;;;;;;21.53;12.90;;;6.00;72.20;;;;;;5038767;28;20859;-42
2021/04/05 04:20:14;;;;;;;22.23;12.30;;;6.10;72.30;;;;;;5040844;28;20572;-44
2021/04/05 04:22:42;;;;;;;26.77;13.73;;;6.10;72.30;;;;;;5041717;28;20546;-43
2021/04/05 04:25:15;;;;;;;22.70;12.80;;;6.10;72.30;;;;;;5053146;28;20510;-44
2021/04/05 04:27:45;;;;;;;20.97;12.17;;;6.10;72.40;;;;;;5034863;28;20539;-43
2021/04/05 04:30:31;;;;;;;24.40;11.70;;;6.10;72.40;;;;;;5040394;28;20459;-42
2021/04/05 04:33:02;;;;;;;24.83;12.13;;;6.20;72.40;;;;;;5038031;28;20496;-42
2021/04/05 04:35:29;;;;;;;22.70;13.23;;;6.20;72.40;;;;;;5039494;28;20465;-43
2021/04/05 04:37:57;;;;;;;24.30;13.90;;;6.20;72.30;;;;;;5044848;28;20446;-43
2021/04/05 04:40:25;;;;;;;18.70;12.70;;;6.20;72.30;;;;;;5037194;28;20469;-42
2021/04/05 04:42:55;;;;;;;21.97;11.57;;;6.20;72.40;;;;;;5041988;28;20466;-42
2021/04/05 04:45:23;;;;;;;21.00;11.70;;;6.20;72.30;;;;;;5036308;28;20498;-43
2021/04/05 04:47:51;;;;;;;24.03;12.70;;;6.30;72.30;;;;;;5041567;28;20454;-44
2021/04/05 04:50:19;;;;;;;24.27;11.83;;;6.30;72.30;;;;;;5044308;28;20803;-42
2021/04/05 04:52:45;;;;;;;16.37;11.00;;;6.30;72.30;;;;;;5039291;28;20814;-42
2021/04/05 04:55:12;;;;;;;20.43;11.27;;;6.40;72.20;;;;;;5040880;28;20466;-42
2021/04/05 04:57:39;;;;;;;24.93;12.30;;;6.40;72.20;;;;;;5045951;28;20447;-43
2021/04/05 05:00:07;;;;;;;25.57;13.97;;;6.40;72.30;;;;;;5041608;28;20585;-42
2021/04/05 05:02:42;;;;;;;26.53;13.53;;;6.30;72.30;;;;;;5039063;28;20517;-42
2021/04/05 05:05:15;;;;;;;21.47;11.90;;;6.40;72.40;;;;;;5037005;28;20497;-43
2021/04/05 05:07:41;;;;;;;17.27;10.87;;;6.40;72.40;;;;;;5038201;28;20562;-43
2021/04/05 05:10:11;;;;;;;17.83;9.20;;;6.40;72.60;;;;;;5039395;28;20455;-43
2021/04/05 05:12:39;;;;;;;22.17;10.23;;;6.40;72.60;;;;;;5039274;28;20458;-43
2021/04/05 05:15:10;;;;;;;15.97;10.20;;;6.50;72.50;;;;;;5036391;28;20459;-42
2021/04/05 05:17:39;;;;;;;18.73;9.70;;;6.50;72.60;;;;;;5036735;28;20489;-43
2021/04/05 05:20:06;;;;;;;18.17;9.63;;;6.50;72.60;;;;;;5040739;28;20474;-42
2021/04/05 05:22:37;;;;;;;17.27;9.73;;;6.60;72.50;;;;;;5040040;28;20527;-43
2021/04/05 05:25:05;;;;;;;17.13;9.80;;;6.70;72.10;;;;;;5038998;28;20494;-43
2021/04/05 05:27:36;;;;;;;18.60;9.63;;;6.70;72.00;;;;;;5044727;28;21046;-43
2021/04/05 05:30:06;;;;;;;18.43;10.23;;;6.70;71.80;;;;;;5043319;28;20808;-43
2021/04/05 05:32:34;;;;;;;23.97;10.50;;;6.70;71.90;;;;;;5039351;28;20971;-43
2021/04/05 05:35:01;;;;;;;25.53;9.90;;;6.80;71.70;;;;;;5038925;28;20461;-44
2021/04/05 05:37:27;;;;;;;22.77;10.57;;;6.90;71.20;;;;;;5043980;28;20469;-43
2021/04/05 05:39:54;;;;;;;18.83;11.53;;;6.90;70.60;;;;;;5041882;28;20978;-43
2021/04/05 05:42:47;;;;;;;23.80;12.10;;;6.90;70.50;;;;;;5044150;28;20469;-43
2021/04/05 05:45:21;;;;;;;16.57;10.13;;;7.00;70.10;;;;;;5036900;28;20513;-44
2021/04/05 05:48:26;;;;;;;20.27;11.30;;;7.10;70.00;;;;;;5029496;28;20943;-42
2021/04/05 05:51:14;;;;;;;21.37;10.73;;;7.10;69.80;;;;;;5058335;28;20521;-43
2021/04/05 05:53:58;;;;;;;20.50;11.37;;;7.10;69.60;;;;;;5041844;28;20462;-43
2021/04/05 05:56:46;;;;;;;21.70;11.20;;;7.20;69.50;;;;;;5041793;28;20855;-42
2021/04/05 05:59:30;;;;;;;22.10;11.23;;;7.20;69.40;;;;;;5037943;28;20458;-42
2021/04/05 06:02:21;;;;;;;23.27;12.23;;;7.30;68.90;;;;;;5044607;28;20466;-44
2021/04/05 06:04:59;;;;;;;19.10;11.37;;;7.40;68.90;;;;;;5043905;28;20488;-43
2021/04/05 06:08:04;;;;;;;18.60;10.40;;;7.40;68.60;;;;;;5045683;28;20442;-44
2021/04/05 06:11:08;;;;;;;23.83;11.43;;;7.50;68.40;;;;;;5040088;28;20451;-43
2021/04/05 06:13:55;;;;;;;21.57;12.60;;;7.60;68.00;;;;;;5010724;28;20468;-43
2021/04/05 06:16:34;;;;;;;25.27;12.80;;;7.60;68.10;;;;;;5037460;28;20484;-43
2021/04/05 06:19:07;;;;;;;23.80;11.80;;;7.60;68.10;;;;;;5043345;28;20452;-44
2021/04/05 06:21:55;;;;;;;19.63;11.13;;;7.60;68.00;;;;;;5038903;28;20458;-43
2021/04/05 06:24:45;;;;;;;22.67;12.53;;;7.70;67.70;;;;;;5040933;28;20687;-42
2021/04/05 06:27:19;;;;;;;26.27;13.23;;;7.80;67.80;;;;;;5046686;28;20835;-44
2021/04/05 06:30:17;;;;;;;22.70;12.90;;;7.80;67.60;;;;;;5042893;28;20451;-43
2021/04/05 06:33:07;;;;;;;27.30;12.50;;;7.80;67.70;;;;;;5043633;28;20443;-42
2021/04/05 06:36:03;;;;;;;21.47;13.70;;;7.80;67.80;;;;;;5038131;28;20469;-42
2021/04/05 06:38:37;;;;;;;21.50;12.80;;;7.90;67.50;;;;;;5043428;28;20459;-43
2021/04/05 06:41:23;;;;;;;22.00;14.03;;;7.90;67.70;;;;;;5041074;28;20935;-42
2021/04/05 06:44:01;;;;;;;24.07;13.60;;;7.90;67.50;;;;;;5041494;28;20999;-42
2021/04/05 06:46:56;;;;;;;24.37;12.90;;;8.00;67.60;;;;;;5037376;28;20446;-43
2021/04/05 06:49:34;;;;;;;24.57;13.60;;;8.00;67.60;;;;;;5039544;28;20455;-43
2021/04/05 06:52:18;;;;;;;30.90;14.60;;;8.00;67.70;;;;;;5042933;28;20963;-42
2021/04/05 06:54:50;;;;;;;23.50;13.70;;;8.00;68.00;;;;;;5040163;28;20877;-43
2021/04/05 06:57:32;;;;;;;26.90;14.37;;;8.00;68.10;;;;;;5040047;28;20464;-44
2021/04/05 07:00:04;;;;;;;25.73;13.37;;;8.00;68.10;;;;;;5042044;28;20458;-42
2021/04/05 07:03:15;;;;;;;27.20;13.87;;;8.10;68.20;;;;;;5040024;28;20458;-43
2021/04/05 07:06:27;;;;;;;23.50;12.70;;;8.10;68.50;;;;;;5036186;28;20470;-44
2021/04/05 07:09:02;;;;;;;23.20;13.50;;;8.10;68.60;;;;;;5021687;28;20545;-42
2021/04/05 07:11:52;;;;;;;23.80;14.80;;;8.10;68.70;;;;;;5038075;28;20951;-42
2021/04/05 07:14:38;;;;;;;26.97;14.30;;;8.10;69.00;;;;;;5038157;28;20486;-42
2021/04/05 07:17:43;;;;;;;29.63;14.43;;;8.10;69.10;;;;;;5039677;28;20510;-41
2021/04/05 07:20:28;;;;;;;27.57;14.20;;;8.20;69.20;;;;;;5037431;28;20481;-43
2021/04/05 07:23:22;;;;;;;26.13;15.03;;;8.20;69.20;;;;;;5040747;28;20513;-42
2021/04/05 07:26:19;;;;;;;27.20;14.90;;;8.10;69.60;;;;;;5040235;28;20470;-43
2021/04/05 07:28:53;;;;;;;24.70;15.07;;;8.20;69.30;;;;;;5037368;28;20455;-42
2021/04/05 07:31:45;;;;;;;28.43;14.77;;;8.20;69.40;;;;;;5040063;28;20832;-43
2021/04/05 07:34:31;;;;;;;23.20;13.63;;;8.20;69.30;;;;;;5040553;28;20455;-42
2021/04/05 07:37:17;;;;;;;30.30;14.27;;;8.30;68.80;;;;;;5041562;28;20469;-43
2021/04/05 07:39:59;;;;;;;25.40;14.97;;;8.30;67.90;;;;;;5040466;28;20546;-43
2021/04/05 07:42:46;;;;;;;30.57;15.37;;;8.40;67.60;;;;;;5040390;28;20446;-43
2021/04/05 07:45:22;;;;;;;25.20;13.97;;;8.40;67.60;;;;;;5041005;28;20493;-42
2021/04/05 07:47:58;;;;;;;28.03;14.13;;;8.40;67.40;;;;;;5043300;28;20869;-42
2021/04/05 07:50:45;;;;;;;29.70;15.67;;;8.40;67.40;;;;;;5044173;28;20740;-42
2021/04/05 07:53:22;;;;;;;27.73;15.90;;;8.40;67.40;;;;;;5037653;28;20824;-44
2021/04/05 07:55:51;;;;;;;28.03;15.87;;;8.50;67.40;;;;;;5041927;28;20465;-43
2021/04/05 07:58:55;;;;;;;19.87;12.60;;;8.60;67.10;;;;;;5040896;28;20454;-42
2021/04/05 08:01:38;;;;;;;28.97;15.30;;;8.60;67.10;;;;;;5038509;28;20450;-43
2021/04/05 08:04:43;;;;;;;27.43;14.07;;;8.60;66.90;;;;;;5038714;28;21037;-42
2021/04/05 08:07:21;;;;;;;22.80;15.07;;;8.60;66.90;;;;;;5032088;28;20956;-43
2021/04/05 08:09:59;;;;;;;29.33;15.13;;;8.60;66.70;;;;;;5045631;28;21046;-42
2021/04/05 08:12:33;;;;;;;25.17;15.73;;;8.60;66.70;;;;;;5038581;28;20451;-43
2021/04/05 08:15:30;;;;;;;27.47;15.60;;;8.60;66.50;;;;;;5038425;28;20458;-43
2021/04/05 08:18:35;;;;;;;25.53;14.03;;;8.60;67.00;;;;;;5013481;28;20459;-44
2021/04/05 08:21:09;;;;;;;22.60;13.80;;;8.60;67.10;;;;;;5032654;28;20474;-43
2021/04/05 08:23:54;;;;;;;29.53;16.27;;;8.60;66.90;;;;;;5038301;28;20482;-43
2021/04/05 08:26:38;;;;;;;24.97;14.63;;;8.60;66.80;;;;;;5043300;28;20547;-43
2021/04/05 08:29:46;;;;;;;23.53;15.33;;;8.70;66.60;;;;;;5041119;28;20534;-43
2021/04/05 08:32:30;;;;;;;28.33;14.83;;;8.70;66.60;;;;;;5038518;28;20467;-43
2021/04/05 08:35:18;;;;;;;23.37;15.03;;;8.70;66.90;;;;;;5038645;28;20470;-44
2021/04/05 08:37:57;;;;;;;28.40;15.47;;;8.70;66.80;;;;;;5042586;28;20462;-43
2021/04/05 08:40:37;;;;;;;23.83;13.73;;;8.70;66.70;;;;;;5034157;28;20451;-44
2021/04/05 08:43:10;;;;;;;21.40;13.60;;;8.70;67.30;;;;;;5034309;28;20484;-43
2021/04/05 08:45:57;;;;;;;31.73;17.20;;;8.70;67.20;;;;;;5036219;28;21179;-44
2021/04/05 08:48:27;;;;;;;30.90;14.90;;;8.80;67.30;;;;;;5037474;28;20534;-42
2021/04/05 08:51:00;;;;;;;22.87;15.20;;;8.80;67.40;;;;;;5039499;28;21003;-42
2021/04/05 08:53:30;;;;;;;23.03;13.20;;;8.80;67.70;;;;;;5044074;28;20457;-44
2021/04/05 08:55:58;;;;;;;22.67;12.97;;;8.80;67.40;;;;;;5035277;28;20459;-43
2021/04/05 08:58:40;;;;;;;20.13;12.20;;;8.80;67.60;;;;;;5039116;28;20454;-43
2021/04/05 09:01:12;;;;;;;22.07;12.87;;;8.90;67.60;;;;;;5040862;28;20512;-42
2021/04/05 09:03:43;;;;;;;23.90;13.27;;;8.90;67.40;;;;;;5039650;28;20970;-42
2021/04/05 09:06:15;;;;;;;26.10;15.00;;;8.90;67.40;;;;;;5043497;28;20859;-43
2021/04/05 09:08:43;;;;;;;21.73;12.27;;;9.00;67.30;;;;;;5046499;28;20453;-42
2021/04/05 09:11:13;;;;;;;25.67;13.60;;;9.00;67.40;;;;;;5042643;28;20448;-42
2021/04/05 09:13:52;;;;;;;31.27;13.57;;;9.10;67.40;;;;;;5040619;28;20846;-43
2021/04/05 09:16:40;;;;;;;24.50;13.00;;;9.10;67.20;;;;;;5040046;28;20530;-44
2021/04/05 09:19:28;;;;;;;21.10;12.67;;;9.20;67.10;;;;;;5040261;28;20462;-42
2021/04/05 09:22:34;;;;;;;21.40;13.30;;;9.20;67.00;;;;;;5041390;28;20441;-43
2021/04/05 09:25:19;;;;;;;20.63;12.70;;;9.30;66.90;;;;;;5043765;28;20496;-43
2021/04/05 09:28:15;;;;;;;24.50;13.83;;;9.30;66.50;;;;;;5047180;28;20851;-43
2021/04/05 09:31:23;;;;;;;20.30;12.50;;;9.30;66.70;;;;;;5044550;28;20451;-42
2021/04/05 09:34:09;;;;;;;21.47;11.40;;;9.40;66.30;;;;;;5042969;28;21038;-43
2021/04/05 09:36:53;;;;;;;24.03;12.60;;;9.30;66.40;;;;;;5044138;28;20831;-42
2021/04/05 09:39:29;;;;;;;19.97;12.57;;;9.30;66.60;;;;;;5049063;28;20464;-43
2021/04/05 09:42:23;;;;;;;16.80;12.30;;;9.20;66.80;;;;;;5042174;28;20468;-42
2021/04/05 09:45:10;;;;;;;17.60;11.10;;;9.20;66.90;;;;;;5041722;28;21134;-42
2021/04/05 09:47:55;;;;;;;25.30;12.30;;;9.20;66.90;;;;;;5045682;28;20451;-43
2021/04/05 09:50:27;;;;;;;16.90;12.07;;;9.20;67.10;;;;;;5044337;28;20447;-43
2021/04/05 09:53:00;;;;;;;20.57;12.47;;;9.20;67.20;;;;;;5034332;28;20546;-43
2021/04/05 09:55:33;;;;;;;23.33;11.50;;;9.30;67.30;;;;;;5037759;28;20455;-42
2021/04/05 09:58:10;;;;;;;22.43;11.67;;;9.30;67.20;;;;;;5042463;28;20931;-43
2021/04/05 10:00:38;;;;;;;17.43;11.67;;;9.30;67.20;;;;;;5044122;28;20457;-43
2021/04/05 10:03:07;;;;;;;18.33;12.13;;;9.40;67.20;;;;;;5042353;28;20477;-43
2021/04/05 10:05:35;;;;;;;21.97;11.10;;;9.40;67.10;;;;;;5039817;28;20496;-43
2021/04/05 10:08:02;;;;;;;19.80;12.80;;;9.40;67.10;;;;;;5038298;28;20466;-43
2021/04/05 10:10:29;;;;;;;23.27;12.87;;;9.40;67.00;;;;;;5033127;28;20443;-42
2021/04/05 10:12:58;;;;;;;21.00;13.20;;;9.30;67.50;;;;;;5036854;28;20462;-43
2021/04/05 10:15:28;;;;;;;17.83;12.07;;;9.40;67.50;;;;;;5038246;28;20940;-43
2021/04/05 10:18:00;;;;;;;23.37;13.53;;;9.40;67.10;;;;;;5041804;28;20474;-43
2021/04/05 10:20:30;;;;;;;16.93;10.20;;;9.40;67.40;;;;;;5039170;28;20470;-43
2021/04/05 10:23:02;;;;;;;18.80;11.17;;;9.40;66.90;;;;;;5041614;28;20464;-42
2021/04/05 10:25:30;;;;;;;16.47;10.00;;;9.40;67.20;;;;;;5039918;28;20477;-42
2021/04/05 10:27:58;;;;;;;15.03;9.40;;;9.40;67.40;;;;;;5043382;28;20445;-43
2021/04/05 10:30:32;;;;;;;17.67;10.20;;;9.50;67.60;;;;;;5037259;28;20462;-43
2021/04/05 10:33:14;;;;;;;15.97;9.20;;;9.50;67.50;;;;;;5056804;28;20454;-42
2021/04/05 10:35:44;;;;;;;18.47;9.83;;;9.50;67.50;;;;;;5037981;28;20466;-43
2021/04/05 10:38:11;;;;;;;15.23;9.80;;;9.60;67.30;;;;;;5043498;28;20455;-43
2021/04/05 10:40:39;;;;;;;16.37;8.27;;;9.60;67.60;;;;;;5038615;28;20960;-41
2021/04/05 10:43:22;;;;;;;14.70;9.43;;;9.60;67.60;;;;;;5041004;28;20469;-43
2021/04/05 10:45:58;;;;;;;16.27;9.00;;;9.60;67.70;;;;;;5037915;28;20904;-43
2021/04/05 10:48:41;;;;;;;15.90;9.87;;;9.70;68.30;;;;;;5041317;28;20459;-43
2021/04/05 10:51:15;;;;;;;13.67;9.87;;;9.70;68.00;;;;;;5043080;28;20459;-42
2021/04/05 10:53:43;;;;;;;12.20;8.50;;;9.70;68.10;;;;;;5035336;28;20460;-42
2021/04/05 10:56:11;;;;;;;14.10;8.77;;;9.70;68.20;;;;;;5036753;28;20461;-42
2021/04/05 10:58:59;;;;;;;13.07;10.07;;;9.60;68.90;;;;;;5037168;28;20463;-43
2021/04/05 11:01:27;;;;;;;16.47;10.03;;;9.60;70.10;;;;;;5035127;28;20450;-43
2021/04/05 11:03:54;;;;;;;13.73;9.10;;;9.50;70.70;;;;;;5036841;28;20997;-42
2021/04/05 11:06:22;;;;;;;17.00;11.07;;;9.50;71.90;;;;;;5038482;28;20459;-42
2021/04/05 11:08:52;;;;;;;9.70;7.20;;;9.40;73.30;;;;;;5041073;28;20451;-42
2021/04/05 11:11:30;;;;;;;14.80;7.57;;;9.30;73.10;;;;;;5038917;28;20852;-42
2021/04/05 11:14:01;;;;;;;11.83;7.30;;;9.20;74.30;;;;;;5036667;28;20865;-42
2021/04/05 11:16:29;;;;;;;11.80;6.73;;;9.00;74.80;;;;;;5040458;28;20471;-42
2021/04/05 11:19:02;;;;;;;10.57;6.70;;;8.90;75.40;;;;;;5039031;28;20466;-42
2021/04/05 11:21:40;;;;;;;9.73;7.07;;;8.90;77.10;;;;;;5041152;28;20526;-43
2021/04/05 11:24:10;;;;;;;12.47;7.20;;;8.80;77.60;;;;;;5041757;28;20500;-42
2021/04/05 11:26:37;;;;;;;9.03;6.27;;;8.80;77.60;;;;;;5035453;28;20459;-42
2021/04/05 11:29:08;;;;;;;9.50;6.93;;;8.70;77.70;;;;;;5041001;28;20533;-41
2021/04/05 11:31:41;;;;;;;14.63;8.27;;;8.70;79.10;;;;;;5040725;28;20940;-42
2021/04/05 11:34:08;;;;;;;14.77;7.10;;;8.70;79.50;;;;;;5043165;28;20443;-43
2021/04/05 11:37:14;;;;;;;13.37;8.80;;;8.90;79.90;;;;;;5052128;28;20459;-41
2021/04/05 11:39:59;;;;;;;7.40;5.80;;;8.90;80.20;;;;;;5005819;28;20725;-42
2021/04/05 11:42:34;;;;;;;8.80;5.60;;;9.00;78.80;;;;;;4989278;28;20471;-42
2021/04/05 11:45:35;;;;;;;6.17;5.37;;;8.90;78.60;;;;;;5032335;28;20483;-42
2021/04/05 11:48:18;;;;;;;6.70;3.47;;;8.90;78.20;;;;;;5040337;28;20529;-42
2021/04/05 11:50:45;;;;;;;2.43;2.07;;;8.70;77.80;;;;;;5044659;28;20729;-42
2021/04/05 11:53:27;;;;;;;4.00;2.30;;;8.60;75.90;;;;;;5041288;28;20501;-41
2021/04/05 11:56:23;;;;;;;2.73;1.93;;;8.50;75.60;;;;;;5040771;28;20448;-42
2021/04/05 11:59:07;;;;;;;3.50;2.50;;;8.40;76.50;;;;;;5038055;28;20464;-42
2021/04/05 12:01:42;;;;;;;2.10;1.83;;;8.30;77.10;;;;;;5039587;28;20487;-42
2021/04/05 12:04:17;;;;;;;3.90;2.70;;;8.30;75.80;;;;;;5039830;28;20532;-42
2021/04/05 12:06:48;;;;;;;3.40;1.60;;;8.30;76.10;;;;;;5037773;28;20521;-42
2021/04/05 12:09:26;;;;;;;1.60;1.40;;;8.20;75.70;;;;;;5057063;28;20490;-42
2021/04/05 12:12:02;;;;;;;1.33;1.23;;;8.20;75.60;;;;;;5039553;28;20439;-41
2021/04/05 12:14:30;;;;;;;1.60;1.23;;;8.10;75.40;;;;;;5041415;28;20954;-43
2021/04/05 12:17:00;;;;;;;1.23;1.13;;;8.10;75.70;;;;;;5039857;28;20475;-43
2021/04/05 12:19:36;;;;;;;1.70;1.43;;;8.00;75.70;;;;;;5036534;28;20466;-43
2021/04/05 12:22:04;;;;;;;0.80;0.80;;;8.00;75.50;;;;;;5040408;28;20454;-43
2021/04/05 12:24:36;;;;;;;1.10;0.97;;;8.00;75.80;;;;;;5033902;28;20493;-42
2021/04/05 12:27:08;;;;;;;0.73;0.50;;;8.00;75.50;;;;;;5038055;28;20479;-43
2021/04/05 12:29:36;;;;;;;0.80;0.60;;;8.00;75.60;;;;;;5037244;28;20459;-43
2021/04/05 12:32:05;;;;;;;1.23;0.80;;;7.90;74.90;;;;;;5039563;28;20464;-42
2021/04/05 12:34:37;;;;;;;1.50;1.03;;;7.80;74.40;;;;;;5038860;28;20834;-42
2021/04/05 12:37:13;;;;;;;0.73;0.67;;;7.70;74.40;;;;;;5039276;28;20459;-43
2021/04/05 12:39:40;;;;;;;1.17;0.80;;;7.60;74.00;;;;;;5032445;28;21024;-42
2021/04/05 12:42:11;;;;;;;1.03;0.93;;;7.60;74.10;;;;;;5032327;28;20605;-42
2021/04/05 12:44:43;;;;;;;3.63;1.00;;;7.50;73.50;;;;;;5039533;28;20490;-42
2021/04/05 12:47:13;;;;;;;1.23;1.13;;;7.50;73.20;;;;;;5037993;28;20472;-43
2021/04/05 12:49:45;;;;;;;1.20;1.10;;;7.50;73.20;;;;;;5040676;28;20578;-42
2021/04/05 12:52:16;;;;;;;1.77;1.30;;;7.40;72.10;;;;;;5036766;28;20466;-42
2021/04/05 12:54:48;;;;;;;2.17;0.87;;;7.40;71.60;;;;;;5039763;28;20488;-42
2021/04/05 12:57:23;;;;;;;2.00;1.03;;;7.30;69.00;;;;;;5042081;28;20962;-42
2021/04/05 12:59:49;;;;;;;0.80;0.80;;;7.20;69.50;;;;;;5042214;28;20472;-43
2021/04/05 13:02:23;;;;;;;0.83;0.60;;;7.20;67.90;;;;;;5040142;28;20590;-42
2021/04/05 13:04:58;;;;;;;1.70;0.90;;;7.20;66.90;;;;;;5043483;28;20486;-43
2021/04/05 13:07:39;;;;;;;1.93;0.90;;;7.10;67.00;;;;;;5039358;28;21005;-42
2021/04/05 13:10:24;;;;;;;0.87;0.63;;;7.10;66.20;;;;;;5039794;28;20493;-42
2021/04/05 13:12:57;;;;;;;4.10;1.20;;;7.10;67.20;;;;;;5041994;28;21027;-43
2021/04/05 13:15:31;;;;;;;1.63;0.70;;;7.10;64.20;;;;;;5042302;28;20505;-43
2021/04/05 13:18:20;;;;;;;1.43;0.70;;;7.00;64.70;;;;;;5041345;28;20485;-43
2021/04/05 13:20:49;;;;;;;1.10;0.70;;;7.00;64.80;;;;;;5036124;28;20451;-43